createdAt,value
2022-10-06T00:01:24.892Z,68.78
2022-10-06T00:03:52.326Z,69.01
2022-10-06T00:06:20.990Z,68.83
2022-10-06T00:08:49.553Z,68.94
2022-10-06T00:11:17.569Z,68.77
2022-10-06T00:13:45.017Z,68.81
2022-10-06T00:16:18.275Z,68.87
2022-10-06T00:18:45.739Z,68.92
2022-10-06T00:21:13.092Z,69.07
2022-10-06T00:23:40.606Z,68.91
2022-10-06T00:26:16.642Z,68.87
2022-10-06T00:28:46.779Z,68.79
2022-10-06T00:31:14.422Z,68.57
2022-10-06T00:33:42.425Z,68.86
2022-10-06T00:36:09.866Z,68.82
2022-10-06T00:38:37.241Z,68.69
2022-10-06T00:41:04.620Z,68.83
2022-10-06T00:43:48.160Z,68.84
2022-10-06T00:46:29.053Z,68.54
2022-10-06T00:49:28.641Z,68.81
2022-10-06T00:52:00.072Z,68.78
2022-10-06T00:54:27.586Z,68.52
2022-10-06T00:56:55.775Z,68.91
2022-10-06T00:59:23.193Z,68.82
2022-10-06T01:01:56.795Z,68.89
2022-10-06T01:04:25.197Z,68.79
2022-10-06T01:06:55.185Z,68.77
2022-10-06T01:09:23.519Z,68.85
2022-10-06T01:11:54.251Z,68.75
2022-10-06T01:14:22.560Z,69.19
2022-10-06T01:16:53.655Z,69.01
2022-10-06T01:19:44.295Z,68.71
2022-10-06T01:22:12.145Z,68.79
2022-10-06T01:24:39.630Z,68.79
2022-10-06T01:27:07.235Z,68.52
2022-10-06T01:29:34.646Z,68.43
2022-10-06T01:32:02.104Z,68.61
2022-10-06T01:34:29.541Z,68.56
2022-10-06T01:36:56.980Z,68.69
2022-10-06T01:39:27.039Z,68.63
2022-10-06T01:42:13.018Z,68.62
2022-10-06T01:44:40.489Z,68.54
2022-10-06T01:47:08.084Z,68.29
2022-10-06T01:49:35.525Z,68.67
2022-10-06T01:52:03.110Z,68.66
2022-10-06T01:54:30.493Z,68.37
2022-10-06T01:56:57.905Z,68.63
2022-10-06T01:59:26.583Z,68.34
2022-10-06T02:01:54.086Z,68.37
2022-10-06T02:04:21.962Z,68.33
2022-10-06T02:06:50.571Z,68.19
2022-10-06T02:09:18.328Z,68.19
2022-10-06T02:11:45.813Z,68.17
2022-10-06T02:14:13.268Z,68.05
2022-10-06T02:16:44.166Z,68.07
2022-10-06T02:19:12.381Z,68.40
2022-10-06T02:21:39.807Z,68.11
2022-10-06T02:24:07.180Z,67.67
2022-10-06T02:26:34.585Z,68.28
2022-10-06T02:29:02.117Z,68.05
2022-10-06T02:31:29.687Z,68.00
2022-10-06T02:33:57.433Z,67.71
2022-10-06T02:36:24.924Z,68.02
2022-10-06T02:38:56.372Z,68.12
2022-10-06T02:41:24.213Z,67.91
2022-10-06T02:43:55.155Z,67.89
2022-10-06T02:46:24.183Z,67.60
2022-10-06T02:48:53.861Z,67.60
2022-10-06T02:51:21.786Z,67.72
2022-10-06T02:53:49.587Z,67.90
2022-10-06T02:56:19.937Z,67.95
2022-10-06T02:58:47.922Z,67.82
2022-10-06T03:01:25.788Z,67.83
2022-10-06T03:03:55.293Z,67.69
2022-10-06T03:06:24.214Z,67.80
2022-10-06T03:09:07.585Z,67.63
2022-10-06T03:11:38.895Z,67.61
2022-10-06T03:14:06.922Z,67.61
2022-10-06T03:16:39.096Z,67.78
2022-10-06T03:19:09.699Z,67.39
2022-10-06T03:21:42.387Z,67.64
2022-10-06T03:24:10.136Z,67.56
2022-10-06T03:26:40.159Z,67.45
2022-10-06T03:29:11.693Z,67.67
2022-10-06T03:31:43.292Z,67.50
2022-10-06T03:34:11.927Z,67.44
2022-10-06T03:36:39.704Z,67.42
2022-10-06T03:39:07.998Z,67.25
2022-10-06T03:41:37.017Z,67.41
2022-10-06T03:44:06.028Z,67.46
2022-10-06T03:46:35.614Z,67.33
2022-10-06T03:49:05.798Z,67.67
2022-10-06T03:51:35.423Z,67.64
2022-10-06T03:54:03.026Z,67.41
2022-10-06T03:56:36.582Z,67.35
2022-10-06T03:59:06.649Z,67.34
2022-10-06T04:01:45.072Z,67.42
2022-10-06T04:04:14.998Z,67.66
2022-10-06T04:06:45.850Z,67.35
2022-10-06T04:09:17.190Z,67.70
2022-10-06T04:11:45.338Z,67.44
2022-10-06T04:14:15.425Z,67.10
2022-10-06T04:16:47.638Z,67.32
2022-10-06T04:19:17.903Z,66.90
2022-10-06T04:21:51.167Z,66.89
2022-10-06T04:24:21.862Z,66.99
2022-10-06T04:26:50.295Z,67.01
2022-10-06T04:29:19.605Z,67.01
2022-10-06T04:31:54.663Z,67.09
2022-10-06T04:34:36.602Z,66.72
2022-10-06T04:37:04.245Z,66.74
2022-10-06T04:39:32.085Z,66.67
2022-10-06T04:41:59.882Z,66.94
2022-10-06T04:44:30.072Z,66.61
2022-10-06T04:47:01.388Z,66.99
2022-10-06T04:49:28.789Z,66.44
2022-10-06T04:51:57.237Z,66.61
2022-10-06T04:54:26.430Z,66.63
2022-10-06T04:56:58.160Z,66.63
2022-10-06T04:59:46.744Z,66.42
2022-10-06T05:02:16.970Z,66.41
2022-10-06T05:04:45.559Z,66.41
2022-10-06T05:07:15.002Z,66.18
2022-10-06T05:09:42.828Z,66.30
2022-10-06T05:12:11.501Z,66.43
2022-10-06T05:14:39.650Z,66.25
2022-10-06T05:17:07.128Z,66.41
2022-10-06T05:19:36.009Z,66.30
2022-10-06T05:22:03.584Z,66.34
2022-10-06T05:24:32.611Z,66.21
2022-10-06T05:27:02.191Z,66.33
2022-10-06T05:29:30.216Z,66.71
2022-10-06T05:32:00.881Z,66.60
2022-10-06T05:34:29.771Z,66.34
2022-10-06T05:36:57.300Z,66.30
2022-10-06T05:39:25.472Z,66.22
2022-10-06T05:41:56.833Z,66.19
2022-10-06T05:44:25.359Z,66.53
2022-10-06T05:46:53.923Z,66.45
2022-10-06T05:49:21.651Z,66.77
2022-10-06T05:51:53.889Z,66.79
2022-10-06T05:54:25.472Z,66.61
2022-10-06T05:56:53.537Z,66.46
2022-10-06T05:59:22.181Z,66.51
2022-10-06T06:01:50.052Z,66.22
2022-10-06T06:04:34.572Z,66.00
2022-10-06T06:07:05.073Z,65.95
2022-10-06T06:09:33.051Z,65.97
2022-10-06T06:12:01.878Z,66.32
2022-10-06T06:15:10.654Z,66.29
2022-10-06T06:17:49.329Z,66.09
2022-10-06T06:20:17.004Z,66.39
2022-10-06T06:22:44.474Z,66.61
2022-10-06T06:25:13.023Z,66.71
2022-10-06T06:28:00.065Z,66.63
2022-10-06T06:30:27.753Z,66.72
2022-10-06T06:33:00.373Z,66.41
2022-10-06T06:35:28.366Z,66.89
2022-10-06T06:37:56.259Z,66.97
2022-10-06T06:40:23.747Z,66.60
2022-10-06T06:42:53.835Z,66.72
2022-10-06T06:45:39.035Z,66.86
2022-10-06T06:48:20.252Z,66.69
2022-10-06T06:50:55.811Z,66.63
2022-10-06T06:53:23.281Z,66.91
2022-10-06T06:55:51.223Z,66.81
2022-10-06T06:58:20.922Z,67.19
2022-10-06T07:00:48.672Z,67.41
2022-10-06T07:03:38.567Z,67.23
2022-10-06T07:06:12.964Z,67.53
2022-10-06T07:08:42.769Z,67.58
2022-10-06T07:11:24.777Z,67.80
2022-10-06T07:13:55.805Z,67.91
2022-10-06T07:16:41.941Z,67.64
2022-10-06T07:19:31.415Z,67.83
2022-10-06T07:22:17.935Z,68.11
2022-10-06T07:25:03.873Z,68.31
2022-10-06T07:27:31.834Z,68.27
2022-10-06T07:29:59.520Z,69.30
2022-10-06T07:32:31.224Z,69.34
2022-10-06T07:34:58.933Z,69.38
2022-10-06T07:37:26.943Z,69.23
2022-10-06T07:39:54.484Z,69.38
2022-10-06T07:42:22.956Z,68.90
2022-10-06T07:45:09.247Z,69.26
2022-10-06T07:47:39.211Z,69.11
2022-10-06T07:50:07.714Z,69.29
2022-10-06T07:52:39.284Z,69.15
2022-10-06T07:55:07.518Z,69.50
2022-10-06T07:58:01.884Z,69.42
2022-10-06T08:00:29.483Z,69.48
2022-10-06T08:02:56.996Z,69.24
2022-10-06T08:05:24.449Z,69.20
2022-10-06T08:07:52.338Z,69.03
2022-10-06T08:10:20.825Z,69.24
2022-10-06T08:12:48.275Z,69.52
2022-10-06T08:15:15.745Z,69.64
2022-10-06T08:17:43.204Z,69.67
2022-10-06T08:20:13.862Z,69.19
2022-10-06T08:22:41.344Z,68.75
2022-10-06T08:25:09.999Z,69.53
2022-10-06T08:27:37.996Z,68.91
2022-10-06T08:30:05.931Z,69.16
2022-10-06T08:32:33.464Z,69.29
2022-10-06T08:35:00.836Z,69.25
2022-10-06T08:37:28.194Z,70.08
2022-10-06T08:39:55.649Z,69.90
2022-10-06T08:42:42.669Z,69.25
2022-10-06T08:45:20.587Z,69.41
2022-10-06T08:47:53.457Z,69.77
2022-10-06T08:50:58.345Z,69.97
2022-10-06T08:53:40.385Z,69.79
2022-10-06T08:56:18.962Z,69.20
2022-10-06T08:58:59.446Z,68.93
2022-10-06T09:01:29.024Z,68.01
2022-10-06T09:04:01.600Z,69.41
2022-10-06T09:06:48.705Z,69.39
2022-10-06T09:09:25.356Z,69.05
2022-10-06T09:12:23.742Z,69.56
2022-10-06T09:15:13.108Z,69.73
2022-10-06T09:17:49.824Z,69.48
2022-10-06T09:20:20.729Z,68.85
2022-10-06T09:22:49.143Z,69.39
2022-10-06T09:25:21.203Z,70.59
2022-10-06T09:27:56.384Z,70.29
2022-10-06T09:30:24.114Z,70.51
2022-10-06T09:33:00.042Z,69.82
2022-10-06T09:35:29.150Z,70.25
2022-10-06T09:38:08.127Z,70.37
2022-10-06T09:40:42.046Z,70.02
2022-10-06T09:43:18.261Z,70.27
2022-10-06T09:45:45.605Z,69.85
2022-10-06T09:48:24.685Z,69.95
2022-10-06T09:51:32.246Z,69.92
2022-10-06T09:54:15.495Z,69.66
2022-10-06T09:56:45.098Z,69.95
2022-10-06T09:59:22.597Z,69.55
2022-10-06T10:01:53.989Z,69.62
2022-10-06T10:04:30.357Z,69.72
2022-10-06T10:07:24.204Z,69.73
2022-10-06T10:09:52.650Z,69.63
2022-10-06T10:12:32.870Z,69.85
2022-10-06T10:15:01.950Z,69.78
2022-10-06T10:17:29.332Z,69.77
2022-10-06T10:19:56.962Z,69.70
2022-10-06T10:22:33.735Z,69.65
2022-10-06T10:25:05.098Z,69.70
2022-10-06T10:28:11.234Z,69.99
2022-10-06T10:30:45.310Z,69.68
2022-10-06T10:33:29.441Z,69.57
2022-10-06T10:35:57.035Z,69.89
2022-10-06T10:38:24.838Z,69.77
2022-10-06T10:41:22.654Z,69.49
2022-10-06T10:43:55.482Z,69.63
2022-10-06T10:46:30.790Z,69.48
2022-10-06T10:49:04.293Z,69.22
2022-10-06T10:51:41.071Z,69.18
2022-10-06T10:54:11.493Z,68.36
2022-10-06T10:56:38.870Z,68.70
2022-10-06T10:59:15.347Z,68.71
2022-10-06T11:01:50.735Z,68.63
2022-10-06T11:04:18.176Z,68.94
2022-10-06T11:07:11.828Z,69.27
2022-10-06T11:09:49.173Z,69.09
2022-10-06T11:12:33.808Z,69.42
2022-10-06T11:15:06.476Z,69.36
2022-10-06T11:17:44.597Z,69.08
2022-10-06T11:20:14.993Z,69.33
2022-10-06T11:23:06.726Z,69.68
2022-10-06T11:25:44.996Z,69.74
2022-10-06T11:28:37.841Z,69.97
2022-10-06T11:31:16.684Z,69.78
2022-10-06T11:33:51.379Z,69.78
2022-10-06T11:36:26.582Z,70.04
2022-10-06T11:39:01.253Z,70.05
2022-10-06T11:41:37.935Z,69.96
2022-10-06T11:44:15.419Z,69.66
2022-10-06T11:46:51.861Z,69.82
2022-10-06T11:49:28.420Z,69.95
2022-10-06T11:52:11.506Z,69.59
2022-10-06T11:54:45.339Z,69.63
2022-10-06T11:57:30.893Z,69.41
2022-10-06T12:00:04.564Z,69.61
2022-10-06T12:02:34.554Z,69.19
2022-10-06T12:05:44.660Z,69.30
2022-10-06T12:08:01.533Z,69.32
2022-10-06T12:10:28.820Z,69.49
2022-10-06T12:13:50.484Z,69.58
2022-10-06T12:19:38.496Z,69.35
2022-10-06T12:22:17.280Z,69.61
2022-10-06T12:24:51.155Z,69.72
2022-10-06T12:27:27.675Z,69.51
2022-10-06T12:30:05.594Z,69.87
2022-10-06T12:32:42.186Z,69.92
2022-10-06T12:35:18.069Z,69.78
2022-10-06T12:37:53.910Z,69.69
2022-10-06T12:40:46.675Z,69.69
2022-10-06T12:43:22.114Z,69.75
2022-10-06T12:45:55.700Z,69.75
2022-10-06T12:48:27.419Z,69.80
2022-10-06T12:51:06.984Z,69.97
2022-10-06T12:53:41.584Z,69.90
2022-10-06T12:56:17.801Z,69.69
2022-10-06T12:58:45.160Z,70.12
2022-10-06T13:01:12.647Z,70.32
2022-10-06T13:03:40.111Z,70.36
2022-10-06T13:06:08.068Z,70.22
2022-10-06T13:08:36.852Z,70.06
2022-10-06T13:11:21.730Z,70.24
2022-10-06T13:13:50.845Z,70.50
2022-10-06T13:16:21.575Z,70.41
2022-10-06T13:18:49.388Z,70.23
2022-10-06T13:21:16.782Z,70.19
2022-10-06T13:23:44.198Z,70.38
2022-10-06T13:26:28.093Z,70.38
2022-10-06T13:28:56.562Z,70.32
2022-10-06T13:31:31.531Z,70.29
2022-10-06T13:34:03.096Z,70.25
2022-10-06T13:36:35.135Z,70.33
2022-10-06T13:39:19.423Z,70.28
2022-10-06T13:42:01.532Z,70.35
2022-10-06T13:44:30.681Z,70.25
2022-10-06T13:47:22.508Z,70.15
2022-10-06T13:50:05.055Z,70.36
2022-10-06T13:52:38.770Z,70.58
2022-10-06T13:55:23.315Z,70.21
2022-10-06T13:58:14.497Z,70.27
2022-10-06T14:00:56.363Z,70.18
2022-10-06T14:06:16.980Z,70.45
2022-10-06T14:08:55.114Z,70.46
2022-10-06T14:11:27.321Z,70.24
2022-10-06T14:13:58.493Z,70.33
2022-10-06T14:16:26.632Z,70.32
2022-10-06T14:18:59.848Z,70.19
2022-10-06T14:21:31.976Z,69.96
2022-10-06T14:24:01.285Z,69.88
2022-10-06T14:26:36.427Z,70.29
2022-10-06T14:29:03.954Z,70.25
2022-10-06T14:31:33.922Z,70.26
2022-10-06T14:34:01.749Z,70.37
2022-10-06T14:36:34.523Z,70.36
2022-10-06T14:39:08.062Z,70.29
2022-10-06T14:41:35.452Z,70.49
2022-10-06T14:44:06.073Z,70.50
2022-10-06T14:46:33.597Z,70.70
2022-10-06T14:49:03.234Z,70.67
2022-10-06T14:51:33.216Z,70.66
2022-10-06T14:54:03.729Z,70.51
2022-10-06T14:56:34.676Z,70.73
2022-10-06T14:59:05.091Z,70.73
2022-10-06T15:01:33.881Z,70.64
2022-10-06T15:04:03.442Z,70.65
2022-10-06T15:06:49.603Z,70.89
2022-10-06T15:09:16.974Z,70.75
2022-10-06T15:11:44.376Z,70.55
2022-10-06T15:14:11.751Z,70.76
2022-10-06T15:16:42.135Z,70.55
2022-10-06T15:19:10.937Z,70.90
2022-10-06T15:21:39.811Z,70.89
2022-10-06T15:24:09.738Z,70.74
2022-10-06T15:26:55.667Z,70.81
2022-10-06T15:29:23.016Z,70.64
2022-10-06T15:31:52.546Z,70.76
2022-10-06T15:34:27.399Z,70.84
2022-10-06T15:36:55.564Z,70.82
2022-10-06T15:39:24.582Z,70.91
2022-10-06T15:41:52.036Z,70.82
2022-10-06T15:44:22.383Z,70.99
2022-10-06T15:46:51.057Z,70.91
2022-10-06T15:49:22.805Z,71.06
2022-10-06T15:51:51.168Z,70.85
2022-10-06T15:54:21.787Z,70.92
2022-10-06T15:56:53.453Z,70.83
2022-10-06T15:59:23.798Z,70.72
2022-10-06T16:01:56.065Z,70.89
2022-10-06T16:04:47.385Z,70.81
2022-10-06T16:07:16.526Z,70.68
2022-10-06T16:09:45.338Z,70.67
2022-10-06T16:12:16.328Z,70.71
2022-10-06T16:14:43.894Z,70.56
2022-10-06T16:17:11.360Z,70.83
2022-10-06T16:19:40.064Z,70.72
2022-10-06T16:22:08.401Z,70.82
2022-10-06T16:24:35.797Z,71.09
2022-10-06T16:27:03.351Z,70.97
2022-10-06T16:29:31.118Z,71.06
2022-10-06T16:31:59.277Z,70.76
2022-10-06T16:34:26.720Z,70.86
2022-10-06T16:36:54.098Z,70.77
2022-10-06T16:39:21.878Z,70.96
2022-10-06T16:41:50.470Z,70.75
2022-10-06T16:44:17.941Z,70.58
2022-10-06T16:46:45.485Z,70.89
2022-10-06T16:49:12.983Z,70.89
2022-10-06T16:51:42.058Z,70.90
2022-10-06T16:54:13.568Z,70.81
2022-10-06T16:56:42.508Z,71.01
2022-10-06T16:59:14.552Z,71.03
2022-10-06T17:01:42.010Z,70.82
2022-10-06T17:04:16.969Z,70.72
2022-10-06T17:06:50.027Z,70.67
2022-10-06T17:09:18.648Z,70.70
2022-10-06T17:11:53.430Z,71.09
2022-10-06T17:14:21.574Z,71.17
2022-10-06T17:16:50.709Z,70.93
2022-10-06T17:19:18.998Z,70.75
2022-10-06T17:21:48.769Z,70.69
2022-10-06T17:24:18.272Z,70.72
2022-10-06T17:26:47.472Z,70.93
2022-10-06T17:29:19.478Z,71.19
2022-10-06T17:31:47.434Z,70.47
2022-10-06T17:34:20.357Z,70.71
2022-10-06T17:36:50.719Z,70.23
2022-10-06T17:39:20.450Z,70.24
2022-10-06T17:41:48.948Z,69.80
2022-10-06T17:44:20.514Z,70.16
2022-10-06T17:46:48.271Z,70.25
2022-10-06T17:49:16.876Z,70.06
2022-10-06T17:51:45.269Z,69.83
2022-10-06T17:54:16.161Z,69.83
2022-10-06T17:56:44.670Z,69.65
2022-10-06T17:59:30.129Z,69.98
2022-10-06T18:01:58.985Z,69.65
2022-10-06T18:04:27.086Z,70.14
2022-10-06T18:06:54.607Z,70.02
2022-10-06T18:09:22.253Z,69.88
2022-10-06T18:11:55.505Z,69.75
2022-10-06T18:14:27.281Z,69.89
2022-10-06T18:16:59.860Z,70.30
2022-10-06T18:19:31.595Z,69.94
2022-10-06T18:22:01.124Z,69.74
2022-10-06T18:24:29.910Z,69.95
2022-10-06T18:26:58.162Z,69.91
2022-10-06T18:29:29.247Z,69.90
2022-10-06T18:32:05.102Z,70.29
2022-10-06T18:37:30.975Z,70.14
2022-10-06T18:39:58.351Z,70.06
2022-10-06T18:42:25.701Z,69.74
2022-10-06T18:45:11.893Z,69.69
2022-10-06T18:47:57.777Z,69.81
2022-10-06T18:50:25.176Z,69.77
2022-10-06T18:52:52.559Z,69.73
2022-10-06T18:55:20.150Z,69.83
2022-10-06T18:57:48.130Z,69.97
2022-10-06T19:00:15.608Z,69.85
2022-10-06T19:02:48.137Z,69.95
2022-10-06T19:05:17.508Z,69.81
2022-10-06T19:07:45.500Z,70.13
2022-10-06T19:10:13.049Z,69.77
2022-10-06T19:12:40.512Z,70.17
2022-10-06T19:15:08.514Z,70.10
2022-10-06T19:17:36.197Z,69.53
2022-10-06T19:20:03.930Z,69.42
2022-10-06T19:22:31.384Z,69.66
2022-10-06T19:24:58.779Z,69.62
2022-10-06T19:27:26.228Z,69.92
2022-10-06T19:29:54.779Z,69.84
2022-10-06T19:32:24.395Z,69.39
2022-10-06T19:34:52.283Z,69.83
2022-10-06T19:37:19.727Z,69.88
2022-10-06T19:39:48.131Z,69.89
2022-10-06T19:42:35.661Z,69.65
2022-10-06T19:45:04.412Z,69.48
2022-10-06T19:47:32.324Z,69.57
2022-10-06T19:50:03.696Z,69.61
2022-10-06T19:52:34.516Z,69.56
2022-10-06T19:55:02.413Z,69.58
2022-10-06T19:57:31.580Z,69.27
2022-10-06T19:59:59.508Z,69.17
2022-10-06T20:02:29.268Z,69.43
2022-10-06T20:04:56.913Z,69.28
2022-10-06T20:07:27.603Z,69.11
2022-10-06T20:09:55.608Z,69.07
2022-10-06T20:12:25.197Z,69.28
2022-10-06T20:14:56.456Z,69.14
2022-10-06T20:17:24.444Z,69.12
2022-10-06T20:19:57.319Z,69.01
2022-10-06T20:22:25.376Z,69.30
2022-10-06T20:24:52.868Z,69.40
2022-10-06T20:27:20.332Z,68.83
2022-10-06T20:29:47.684Z,69.34
2022-10-06T20:32:15.075Z,69.43
2022-10-06T20:34:42.488Z,69.05
2022-10-06T20:37:09.874Z,69.29
2022-10-06T20:39:56.130Z,69.04
2022-10-06T20:42:27.980Z,69.37
2022-10-06T20:44:55.415Z,69.70
2022-10-06T20:47:23.285Z,69.52
2022-10-06T20:49:55.143Z,69.18
2022-10-06T20:52:23.738Z,69.29
2022-10-06T20:54:51.218Z,69.33
2022-10-06T20:57:18.673Z,69.26
2022-10-06T20:59:46.211Z,69.61
2022-10-06T21:02:13.706Z,69.66
2022-10-06T21:04:43.575Z,69.34
2022-10-06T21:07:11.367Z,69.67
2022-10-06T21:09:38.782Z,69.24
2022-10-06T21:12:06.312Z,69.62
2022-10-06T21:14:35.253Z,69.43
2022-10-06T21:17:02.684Z,69.45
2022-10-06T21:19:30.213Z,69.48
2022-10-06T21:21:57.765Z,69.22
2022-10-06T21:24:25.179Z,69.26
2022-10-06T21:26:52.730Z,69.35
2022-10-06T21:29:20.522Z,69.52
2022-10-06T21:31:48.058Z,69.31
2022-10-06T21:34:15.551Z,69.10
2022-10-06T21:36:43.876Z,69.17
2022-10-06T21:39:11.694Z,69.09
2022-10-06T21:41:39.587Z,68.99
2022-10-06T21:44:12.153Z,69.13
2022-10-06T21:46:50.105Z,68.81
2022-10-06T21:49:24.334Z,69.25
2022-10-06T21:51:53.327Z,69.03
2022-10-06T21:54:21.023Z,68.73
2022-10-06T21:56:48.563Z,68.68
2022-10-06T21:59:15.994Z,68.97
2022-10-06T22:01:44.323Z,68.87
2022-10-06T22:04:12.959Z,68.83
2022-10-06T22:06:40.378Z,68.44
2022-10-06T22:09:08.643Z,68.71
2022-10-06T22:11:37.467Z,68.99
2022-10-06T22:14:06.055Z,68.69
2022-10-06T22:16:34.064Z,68.80
2022-10-06T22:19:02.248Z,68.97
2022-10-06T22:21:34.274Z,68.68
2022-10-06T22:24:14.333Z,68.46
2022-10-06T22:26:42.110Z,68.64
2022-10-06T22:29:11.714Z,68.76
2022-10-06T22:31:40.044Z,68.63
2022-10-06T22:34:08.042Z,68.29
2022-10-06T22:36:35.538Z,68.89
2022-10-06T22:39:02.960Z,68.85
2022-10-06T22:41:31.194Z,68.23
2022-10-06T22:43:58.809Z,68.59
2022-10-06T22:46:27.384Z,68.70
2022-10-06T22:48:54.955Z,68.84
2022-10-06T22:51:22.572Z,68.45
2022-10-06T22:53:58.748Z,68.48
2022-10-06T22:56:30.269Z,68.16
2022-10-06T22:59:00.731Z,68.04
2022-10-06T23:01:28.770Z,68.21
2022-10-06T23:03:56.290Z,67.86
2022-10-06T23:06:24.617Z,68.03
2022-10-06T23:08:52.421Z,67.98
2022-10-06T23:11:20.403Z,67.98
2022-10-06T23:13:50.100Z,68.29
2022-10-06T23:16:18.246Z,68.32
2022-10-06T23:18:45.702Z,68.15
2022-10-06T23:21:19.083Z,68.30
2022-10-06T23:23:47.188Z,68.14
2022-10-06T23:26:15.294Z,67.82
2022-10-06T23:28:46.266Z,67.96
2022-10-06T23:31:13.718Z,67.98
2022-10-06T23:33:41.220Z,67.96
2022-10-06T23:36:09.846Z,68.05
2022-10-06T23:38:37.883Z,67.73
2022-10-06T23:41:06.101Z,67.78
2022-10-06T23:43:33.710Z,67.41
2022-10-06T23:46:01.254Z,67.48
2022-10-06T23:48:28.726Z,67.88
2022-10-06T23:50:56.645Z,67.36
2022-10-06T23:53:24.077Z,67.56
2022-10-06T23:55:51.442Z,67.71
2022-10-06T23:58:19.138Z,67.68
